Albert, OK

7:12 AM CDT on August 30, 2014 (GMT -0500)
Chickasha Municipal | Change Station
CLOSE
Current Station
Airport
Location: Chickasha,
Elevation: 1152 ft
Nearby Weather Stations

Elev 1152 ft 35.10 °N, 97.97 °W | Updated 17 minutes ago

Scattered Clouds
Scattered Clouds
68 °F
Feels Like 68 °F
N
0
Wind Variable Wind from North

Today
High -- | Low -- °F
--% Chance of Precip.
Yesterday
High -- | Low -- °F
Precip. -- in
7:04 AM 8:03 PM
Waxing Crescent, 21% visible
Pressure 29.97 in
Visibility 5.0 miles
Clouds Scattered Clouds 8000 ft
Scattered Clouds 10000 ft
Dew Point 68 °F
Humidity 100%
Rainfall 0.00 in
Snow Depth Not available.
UV 0 out of 12
Pollen 9.90 out of 12
Air Quality Not available.
Flu Activity Not available.
METAR KCHK 301155Z AUTO 00000KT 5SM BR SCT080 SCT100 20/20 A2997 RMK AO2

More Conditions Fewer Conditions

Pressure 29.97 in
Visibility 5.0 miles
Clouds Scattered Clouds 8000 ft
Scattered Clouds 10000 ft
Dew Point 68 °F
Humidity 100%
Rainfall 0.00 in
Snow Depth Not available.
UV 0 out of 12
Pollen 9.90 out of 12
Air Quality Not available.
Flu Activity Not available.
METAR KCHK 301155Z AUTO 00000KT 5SM BR SCT080 SCT100 20/20 A2997 RMK AO2

More Conditions Fewer Conditions

10-Day Weather Forecast

Almanac

Astronomy

Aug. 30, 2014 Rise Set
Actual Time 7:04 AM CDT 8:03 PM CDT
Civil Twilight 6:38 AM CDT 8:29 PM CDT
Nautical Twilight 6:07 AM CDT 8:59 PM CDT
Astronomical Twilight 5:35 AM CDT 9:31 PM CDT
Moon 11:41 AM CDT 10:50 PM CDT
Length of Visible Light 13h 50m
Length of Day
12h 58m
Tomorrow will be 2m 7s shorter.
Waxing Crescent, 21% of the Moon is Illuminated
Today
Waxing Crescent
Sep 2
First Quarter
Sep 8
Full
Sep 15
Last Quarter
Sep 24
New

Today's Extremes

State Highs State Lows

Community

WunderPhotos

Upload Photos

1,748,500 photos uploaded!

WunderBlogs® & News

By Dr. Jeff Masters
Director of Meteorology, Weather Underground
By Kari Strenfel
Meteorologist, Weather Underground
By Christopher C. Burt
Weather Historian, Weather Underground
August 30, 2014
August 30, 2014
August 30, 2014

Nearby

Snow Depth

Station Depth Elevation
No new snow has been reported.

Earthquake Activity

City Distance Mag. Time & Date
Guthrie, Oklahoma 69 miles 3.2 10:39 AM CDT
2014-08-29
Perry, Oklahoma 83 miles 3.0 4:52 AM CDT
2014-08-29
Perry, Oklahoma 86 miles 3.1 10:01 PM CDT
2014-08-28
Minimum magnitude displayed is 2.5.

Coastal Water Temperatures

Place Temperature
No Stations Reporting

Nearby Weather Stations